createdAt,value
2023-02-15T00:00:38.336Z,101099.91
2023-02-15T00:03:04.683Z,101100.69
2023-02-15T00:05:31.909Z,101092.97
2023-02-15T00:07:58.291Z,101092.31
2023-02-15T00:10:24.580Z,101091.19
2023-02-15T00:12:50.905Z,101082.50
2023-02-15T00:15:17.401Z,101086.50
2023-02-15T00:17:43.736Z,101087.00
2023-02-15T00:20:10.391Z,101079.88
2023-02-15T00:22:36.725Z,101073.69
2023-02-15T00:25:03.090Z,101091.81
2023-02-15T00:27:29.711Z,101089.09
2023-02-15T00:29:56.123Z,101074.72
2023-02-15T00:32:22.446Z,101082.53
2023-02-15T00:34:48.807Z,101080.09
2023-02-15T00:37:15.191Z,101081.00
2023-02-15T00:39:41.489Z,101086.28
2023-02-15T00:42:07.806Z,101077.50
2023-02-15T00:44:34.103Z,101068.59
2023-02-15T00:47:00.524Z,101069.59
2023-02-15T00:49:26.876Z,101057.97
2023-02-15T00:51:53.954Z,101062.50
2023-02-15T00:54:20.371Z,101059.94
2023-02-15T00:56:46.727Z,101064.31
2023-02-15T00:59:13.076Z,101071.22
2023-02-15T01:01:39.458Z,101068.63
2023-02-15T01:04:05.822Z,101067.97
2023-02-15T01:06:32.375Z,101066.03
2023-02-15T01:08:58.717Z,101060.75
2023-02-15T01:11:25.199Z,101059.22
2023-02-15T01:13:54.869Z,101060.94
2023-02-15T01:16:22.952Z,101065.28
2023-02-15T01:18:49.469Z,101063.63
2023-02-15T01:21:21.612Z,101069.63
2023-02-15T01:23:48.247Z,101068.19
2023-02-15T01:26:15.456Z,101061.88
2023-02-15T01:28:43.818Z,101063.75
2023-02-15T01:31:13.672Z,101065.34
2023-02-15T01:33:40.108Z,101058.38
2023-02-15T01:36:06.788Z,101068.97
2023-02-15T01:38:34.072Z,101065.28
2023-02-15T01:41:19.161Z,101051.72
2023-02-15T01:43:48.868Z,101053.56
2023-02-15T01:46:18.307Z,101051.50
2023-02-15T01:48:48.990Z,101047.91
2023-02-15T01:51:19.803Z,101036.03
2023-02-15T01:53:54.855Z,101039.66
2023-02-15T01:56:25.945Z,101045.53
2023-02-15T01:58:56.235Z,101036.78
2023-02-15T02:01:23.352Z,101045.13
2023-02-15T02:04:03.088Z,101037.84
2023-02-15T02:06:33.748Z,101039.56
2023-02-15T02:09:01.614Z,101039.88
2023-02-15T02:11:27.957Z,101044.81
2023-02-15T02:13:55.835Z,101042.56
2023-02-15T02:16:37.361Z,101042.97
2023-02-15T02:19:43.943Z,101037.34
2023-02-15T02:22:48.063Z,101035.06
2023-02-15T02:25:27.473Z,101034.94
2023-02-15T02:28:28.152Z,101038.19
2023-02-15T02:31:22.566Z,101042.88
2023-02-15T02:34:17.271Z,101038.34
2023-02-15T02:37:15.824Z,101036.63
2023-02-15T02:40:05.074Z,101030.44
2023-02-15T02:42:58.290Z,101023.59
2023-02-15T02:45:33.159Z,101016.47
2023-02-15T02:48:18.795Z,101010.25
2023-02-15T02:50:45.151Z,101005.38
2023-02-15T02:53:12.252Z,101015.03
2023-02-15T02:56:02.983Z,101009.72
2023-02-15T02:58:37.675Z,101003.72
2023-02-15T03:01:16.716Z,100995.91
2023-02-15T03:03:49.060Z,100997.63
2023-02-15T03:06:24.818Z,100997.53
2023-02-15T03:08:59.512Z,100997.53
2023-02-15T03:11:26.114Z,100995.91
2023-02-15T03:13:52.751Z,100994.81
2023-02-15T03:16:27.537Z,100988.97
2023-02-15T03:18:59.988Z,100992.34
2023-02-15T03:21:58.361Z,100978.72
2023-02-15T03:24:30.100Z,100973.41
2023-02-15T03:26:57.483Z,100978.78
2023-02-15T03:29:28.514Z,100975.19
2023-02-15T03:32:00.122Z,100976.16
2023-02-15T03:34:27.126Z,100972.31
2023-02-15T03:37:14.370Z,100970.25
2023-02-15T03:39:48.820Z,100972.22
2023-02-15T03:42:24.939Z,100972.03
2023-02-15T03:45:06.497Z,100971.22
2023-02-15T03:47:37.517Z,100962.22
2023-02-15T03:50:30.323Z,100949.47
2023-02-15T03:52:59.438Z,100943.13
2023-02-15T03:55:25.927Z,100946.59
2023-02-15T03:58:11.577Z,100950.84
2023-02-15T04:01:03.963Z,100958.03
2023-02-15T04:03:30.340Z,100948.63
2023-02-15T04:05:56.656Z,100959.56
2023-02-15T04:08:42.996Z,100959.84
2023-02-15T04:11:09.352Z,100943.41
2023-02-15T04:13:36.428Z,100953.88
2023-02-15T04:16:06.811Z,100952.00
2023-02-15T04:18:55.920Z,100960.78
2023-02-15T04:21:42.768Z,100963.22
2023-02-15T04:24:28.505Z,100956.34
2023-02-15T04:26:54.988Z,100959.84
2023-02-15T04:29:23.316Z,100971.28
2023-02-15T04:31:50.706Z,100964.22
2023-02-15T04:34:17.222Z,100959.13
2023-02-15T04:36:44.251Z,100960.63
2023-02-15T04:39:13.710Z,100964.03
2023-02-15T04:41:40.565Z,100955.34
2023-02-15T04:44:06.981Z,100976.34
2023-02-15T04:46:33.412Z,100964.91
2023-02-15T04:48:59.736Z,100964.78
2023-02-15T04:51:26.049Z,100953.50
2023-02-15T04:53:55.290Z,100961.25
2023-02-15T04:56:21.948Z,100957.56
2023-02-15T04:58:48.490Z,100951.44
2023-02-15T05:01:15.629Z,100947.19
2023-02-15T05:03:41.993Z,100939.41
2023-02-15T05:06:08.462Z,100945.69
2023-02-15T05:08:34.795Z,100944.78
2023-02-15T05:11:01.156Z,100941.44
2023-02-15T05:13:27.514Z,100931.75
2023-02-15T05:15:54.950Z,100930.03
2023-02-15T05:18:22.332Z,100921.56
2023-02-15T05:20:49.257Z,100927.41
2023-02-15T05:23:18.921Z,100911.94
2023-02-15T05:26:08.679Z,100921.06
2023-02-15T05:28:36.389Z,100920.13
2023-02-15T05:31:06.766Z,100923.81
2023-02-15T05:33:33.868Z,100928.41
2023-02-15T05:36:02.154Z,100922.16
2023-02-15T05:38:29.671Z,100917.22
2023-02-15T05:40:56.085Z,100923.13
2023-02-15T05:43:23.209Z,100931.44
2023-02-15T05:45:55.283Z,100932.53
2023-02-15T05:48:23.900Z,100927.38
2023-02-15T05:51:02.064Z,100929.91
2023-02-15T05:53:30.695Z,100923.13
2023-02-15T05:56:00.383Z,100930.81
2023-02-15T05:58:27.918Z,100930.63
2023-02-15T06:00:55.017Z,100929.78
2023-02-15T06:03:21.395Z,100921.84
2023-02-15T06:05:47.720Z,100936.81
2023-02-15T06:08:14.094Z,100934.06
2023-02-15T06:10:40.982Z,100933.50
2023-02-15T06:13:07.746Z,100931.84
2023-02-15T06:15:34.130Z,100941.09
2023-02-15T06:18:00.569Z,100932.34
2023-02-15T06:20:27.294Z,100935.22
2023-02-15T06:22:53.575Z,100940.25
2023-02-15T06:25:20.024Z,100933.84
2023-02-15T06:27:46.359Z,100933.81
2023-02-15T06:30:13.402Z,100940.94
2023-02-15T06:32:41.375Z,100940.25
2023-02-15T06:35:07.978Z,100946.47
2023-02-15T06:37:34.436Z,100950.66
2023-02-15T06:40:03.484Z,100950.47
2023-02-15T06:42:30.686Z,100958.28
2023-02-15T06:44:57.007Z,100955.53
2023-02-15T06:47:23.390Z,100956.31
2023-02-15T06:49:49.685Z,100947.56
2023-02-15T06:52:16.341Z,100940.78
2023-02-15T06:54:42.645Z,100946.44
2023-02-15T06:57:10.342Z,100948.75
2023-02-15T06:59:36.650Z,100929.88
2023-02-15T07:02:03.038Z,100940.78
2023-02-15T07:04:30.440Z,100939.84
2023-02-15T07:06:56.752Z,100939.84
2023-02-15T07:09:23.505Z,100937.13
2023-02-15T07:12:08.443Z,100943.19
2023-02-15T07:14:34.819Z,100934.72
2023-02-15T07:17:01.152Z,100938.09
2023-02-15T07:19:27.472Z,100951.84
2023-02-15T07:21:53.845Z,100944.69
2023-02-15T07:24:20.153Z,100936.94
2023-02-15T07:26:46.569Z,100947.28
2023-02-15T07:29:12.850Z,100942.97
2023-02-15T07:31:39.213Z,100947.41
2023-02-15T07:34:07.828Z,100950.16
2023-02-15T07:36:34.143Z,100947.34
2023-02-15T07:39:00.462Z,100941.25
2023-02-15T07:41:26.790Z,100950.06
2023-02-15T07:43:53.140Z,100949.59
2023-02-15T07:46:20.936Z,100944.69
2023-02-15T07:48:47.601Z,100946.63
2023-02-15T07:51:15.288Z,100946.31
2023-02-15T07:53:42.224Z,100947.78
2023-02-15T07:56:13.304Z,100946.09
2023-02-15T07:58:51.631Z,100933.22
2023-02-15T08:01:36.159Z,100940.19
2023-02-15T08:04:03.705Z,100939.03
2023-02-15T08:06:32.291Z,100952.16
2023-02-15T08:08:58.873Z,100946.97
2023-02-15T08:11:30.087Z,100940.88
2023-02-15T08:14:00.392Z,100920.84
2023-02-15T08:16:37.804Z,100923.41
2023-02-15T08:19:23.791Z,100928.44
2023-02-15T08:21:53.008Z,100921.31
2023-02-15T08:24:22.418Z,100921.41
2023-02-15T08:26:49.609Z,100926.34
2023-02-15T08:29:17.887Z,100917.91
2023-02-15T08:31:44.849Z,100915.81
2023-02-15T08:34:15.747Z,100907.06
2023-02-15T08:36:43.317Z,100913.13
2023-02-15T08:39:09.799Z,100909.72
2023-02-15T08:41:37.632Z,100906.38
2023-02-15T08:44:08.883Z,100908.97
2023-02-15T08:46:37.864Z,100900.00
2023-02-15T08:49:04.816Z,100903.66
2023-02-15T08:51:33.714Z,100898.28
2023-02-15T08:54:02.160Z,100889.63
2023-02-15T08:56:32.813Z,100884.47
2023-02-15T08:58:59.293Z,100882.50
2023-02-15T09:01:31.454Z,100878.75
2023-02-15T09:04:05.051Z,100875.19
2023-02-15T09:06:32.610Z,100879.91
2023-02-15T09:08:59.012Z,100875.56
2023-02-15T09:11:28.274Z,100880.00
2023-02-15T09:14:10.052Z,100868.47
2023-02-15T09:16:38.180Z,100861.00
2023-02-15T09:19:05.825Z,100866.41
2023-02-15T09:21:33.805Z,100871.50
2023-02-15T09:24:02.715Z,100873.06
2023-02-15T09:26:31.220Z,100876.47
2023-02-15T09:29:00.802Z,100867.59
2023-02-15T09:31:31.201Z,100865.72
2023-02-15T09:33:59.789Z,100866.72
2023-02-15T09:36:32.179Z,100867.59
2023-02-15T09:39:04.557Z,100869.06
2023-02-15T09:42:25.006Z,100863.72
2023-02-15T09:45:29.829Z,100870.53
2023-02-15T09:48:18.151Z,100875.81
2023-02-15T09:51:20.365Z,100876.09
2023-02-15T09:54:04.030Z,100879.19
2023-02-15T09:56:46.219Z,100869.28
2023-02-15T09:59:38.481Z,100882.97
2023-02-15T10:02:39.929Z,100872.50
2023-02-15T10:05:18.544Z,100880.22
2023-02-15T10:08:03.370Z,100896.50
2023-02-15T10:10:46.409Z,100889.28
2023-02-15T10:13:34.670Z,100892.31
2023-02-15T10:16:18.301Z,100894.88
2023-02-15T10:18:54.198Z,100884.44
2023-02-15T10:21:42.417Z,100892.19
2023-02-15T10:24:41.362Z,100883.47
2023-02-15T10:27:14.374Z,100859.03
2023-02-15T10:29:56.702Z,100868.44
2023-02-15T10:32:25.704Z,100874.84
2023-02-15T10:35:14.134Z,100879.75
2023-02-15T10:38:07.860Z,100875.50
2023-02-15T10:40:39.329Z,100875.34
2023-02-15T10:43:38.544Z,100873.72
2023-02-15T10:46:36.637Z,100860.41
2023-02-15T10:49:33.112Z,100866.50
2023-02-15T10:52:37.303Z,100866.41
2023-02-15T10:55:31.698Z,100861.63
2023-02-15T10:58:15.617Z,100852.81
2023-02-15T11:00:53.341Z,100866.66
2023-02-15T11:03:34.040Z,100858.97
2023-02-15T11:06:11.540Z,100864.81
2023-02-15T11:08:43.722Z,100860.06
2023-02-15T11:11:16.310Z,100863.25
2023-02-15T11:13:50.871Z,100854.00
2023-02-15T11:16:25.314Z,100839.72
2023-02-15T11:18:58.094Z,100846.28
2023-02-15T11:21:37.754Z,100837.75
2023-02-15T11:24:12.786Z,100831.72
2023-02-15T11:26:45.208Z,100832.44
2023-02-15T11:29:19.444Z,100833.22
2023-02-15T11:31:50.408Z,100833.31
2023-02-15T11:34:26.148Z,100837.00
2023-02-15T11:36:56.923Z,100816.88
2023-02-15T11:39:29.378Z,100819.25
2023-02-15T11:42:06.327Z,100809.34
2023-02-15T11:44:42.643Z,100812.41
2023-02-15T11:47:12.689Z,100809.16
2023-02-15T11:49:39.308Z,100804.03
2023-02-15T11:52:13.978Z,100798.81
2023-02-15T11:54:43.549Z,100795.53
2023-02-15T11:57:22.840Z,100795.31
2023-02-15T11:59:59.318Z,100795.25
2023-02-15T12:02:28.350Z,100792.63
2023-02-15T12:04:59.418Z,100786.75
2023-02-15T12:07:37.671Z,100774.41
2023-02-15T12:10:22.502Z,100776.78
2023-02-15T12:12:48.880Z,100770.28
2023-02-15T12:15:15.571Z,100767.28
2023-02-15T12:17:52.807Z,100768.00
2023-02-15T12:20:19.083Z,100756.31
2023-02-15T12:23:03.140Z,100762.63
2023-02-15T12:25:55.643Z,100752.91
2023-02-15T12:28:28.179Z,100744.25
2023-02-15T12:30:57.158Z,100755.00
2023-02-15T12:33:35.799Z,100751.41
2023-02-15T12:36:10.607Z,100745.91
2023-02-15T12:38:37.050Z,100748.31
2023-02-15T12:41:27.122Z,100743.09
2023-02-15T12:44:07.146Z,100741.72
2023-02-15T12:46:37.967Z,100732.19
2023-02-15T12:49:10.522Z,100724.50
2023-02-15T12:51:45.362Z,100718.66
2023-02-15T12:54:25.394Z,100716.34
2023-02-15T12:56:52.586Z,100711.03
2023-02-15T12:59:23.527Z,100709.75
2023-02-15T13:01:52.047Z,100696.06
2023-02-15T13:04:30.172Z,100711.19
2023-02-15T13:07:00.750Z,100706.31
2023-02-15T13:09:32.914Z,100708.00
2023-02-15T13:12:18.778Z,100710.16
2023-02-15T13:14:52.441Z,100702.41
2023-02-15T13:17:25.568Z,100694.88
2023-02-15T13:19:55.191Z,100694.66
2023-02-15T13:22:33.878Z,100691.19
2023-02-15T13:25:05.805Z,100687.78
2023-02-15T13:27:38.562Z,100683.88
2023-02-15T13:30:21.392Z,100694.00
2023-02-15T13:32:52.341Z,100694.88
2023-02-15T13:35:19.910Z,100690.06
2023-02-15T13:37:55.233Z,100690.22
2023-02-15T13:40:54.225Z,100685.31
2023-02-15T13:43:33.298Z,100673.25
2023-02-15T13:46:38.242Z,100674.97
2023-02-15T13:49:30.851Z,100670.38
2023-02-15T13:52:15.381Z,100663.28
2023-02-15T13:54:56.883Z,100656.59
2023-02-15T13:57:42.287Z,100651.56
2023-02-15T14:00:46.657Z,100658.63
2023-02-15T14:03:16.671Z,100649.88
2023-02-15T14:05:55.317Z,100651.09
2023-02-15T14:08:48.683Z,100637.50
2023-02-15T14:11:28.969Z,100641.38
2023-02-15T14:14:33.262Z,100642.53
2023-02-15T14:17:07.849Z,100644.19
2023-02-15T14:19:55.091Z,100650.50
2023-02-15T14:22:41.692Z,100633.94
2023-02-15T14:25:27.030Z,100646.16
2023-02-15T14:28:02.543Z,100640.78
2023-02-15T14:30:37.281Z,100650.22
2023-02-15T14:33:25.501Z,100636.38
2023-02-15T14:35:52.296Z,100647.69
2023-02-15T14:38:44.537Z,100634.66
2023-02-15T14:41:24.455Z,100642.84
2023-02-15T14:43:50.849Z,100642.06
2023-02-15T14:46:32.141Z,100638.44
2023-02-15T14:49:08.072Z,100640.56
2023-02-15T14:51:43.920Z,100635.31
2023-02-15T14:54:33.588Z,100634.25
2023-02-15T14:57:02.953Z,100632.97
2023-02-15T14:59:44.353Z,100624.09
2023-02-15T15:02:14.760Z,100624.47
2023-02-15T15:04:45.991Z,100623.59
2023-02-15T15:07:22.501Z,100622.91
2023-02-15T15:10:27.181Z,100623.59
2023-02-15T15:12:58.218Z,100629.78
2023-02-15T15:15:27.605Z,100639.72
2023-02-15T15:18:02.128Z,100643.13
2023-02-15T15:20:41.929Z,100645.28
2023-02-15T15:23:17.480Z,100635.13
2023-02-15T15:26:21.902Z,100639.94
2023-02-15T15:28:48.204Z,100642.56
2023-02-15T15:31:38.780Z,100638.75
2023-02-15T15:34:20.096Z,100630.63
2023-02-15T15:37:11.654Z,100623.72
2023-02-15T15:40:21.851Z,100632.97
2023-02-15T15:43:09.164Z,100622.75
2023-02-15T15:45:44.778Z,100623.03
2023-02-15T15:48:34.432Z,100620.47
2023-02-15T15:51:05.483Z,100625.97
2023-02-15T15:53:40.857Z,100627.69
2023-02-15T15:56:13.109Z,100630.94
2023-02-15T15:58:45.290Z,100634.19
2023-02-15T16:01:15.572Z,100638.94
2023-02-15T16:03:52.677Z,100631.16
2023-02-15T16:06:33.895Z,100642.13
2023-02-15T16:09:21.553Z,100642.81
2023-02-15T16:12:01.184Z,100641.00
2023-02-15T16:14:35.773Z,100631.03
2023-02-15T16:17:05.382Z,100615.53
2023-02-15T16:19:39.007Z,100631.69
2023-02-15T16:22:13.349Z,100636.69
2023-02-15T16:24:57.792Z,100642.72
2023-02-15T16:27:44.686Z,100645.28
2023-02-15T16:30:22.097Z,100634.06
2023-02-15T16:32:49.143Z,100626.19
2023-02-15T16:35:18.549Z,100640.22
2023-02-15T16:37:45.378Z,100641.75
2023-02-15T16:40:43.166Z,100645.28
2023-02-15T16:43:17.363Z,100636.94
2023-02-15T16:45:44.460Z,100647.31
2023-02-15T16:48:24.214Z,100648.03
2023-02-15T16:50:54.473Z,100660.59
2023-02-15T16:53:24.977Z,100651.47
2023-02-15T16:55:57.950Z,100666.56
2023-02-15T16:58:29.900Z,100675.47
2023-02-15T17:01:02.092Z,100675.47
2023-02-15T17:03:29.655Z,100672.69
2023-02-15T17:05:58.513Z,100672.91
2023-02-15T17:08:33.048Z,100668.25
2023-02-15T17:10:59.317Z,100674.09
2023-02-15T17:13:29.525Z,100670.38
2023-02-15T17:15:58.882Z,100671.41
2023-02-15T17:18:27.820Z,100670.25
2023-02-15T17:20:56.972Z,100664.41
2023-02-15T17:23:26.455Z,100674.63
2023-02-15T17:25:53.131Z,100684.63
2023-02-15T17:28:23.010Z,100674.91
2023-02-15T17:30:51.898Z,100675.97
2023-02-15T17:33:36.002Z,100682.22
2023-02-15T17:36:22.737Z,100679.59
2023-02-15T17:38:58.248Z,100676.13
2023-02-15T17:41:25.256Z,100669.47
2023-02-15T17:43:51.617Z,100673.69
2023-02-15T17:46:19.557Z,100681.81
2023-02-15T17:48:48.600Z,100676.19
2023-02-15T17:51:16.293Z,100677.50
2023-02-15T17:54:06.629Z,100684.44
2023-02-15T17:56:34.515Z,100678.56
2023-02-15T17:59:00.856Z,100671.13
2023-02-15T18:01:45.718Z,100667.63
2023-02-15T18:04:32.490Z,100668.16
2023-02-15T18:07:18.157Z,100668.00
2023-02-15T18:10:04.155Z,100670.59
2023-02-15T18:12:33.333Z,100677.81
2023-02-15T18:15:01.287Z,100672.97
2023-02-15T18:17:35.951Z,100672.25
2023-02-15T18:20:05.375Z,100666.81
2023-02-15T18:22:32.714Z,100660.16
2023-02-15T18:24:59.435Z,100670.59
2023-02-15T18:27:26.047Z,100678.16
2023-02-15T18:29:52.400Z,100670.13
2023-02-15T18:32:25.364Z,100676.78
2023-02-15T18:34:54.192Z,100670.84
2023-02-15T18:37:22.117Z,100668.72
2023-02-15T18:39:50.620Z,100658.25
2023-02-15T18:42:22.877Z,100669.03
2023-02-15T18:44:52.015Z,100676.69
2023-02-15T18:47:18.330Z,100657.09
2023-02-15T18:49:44.678Z,100668.47
2023-02-15T18:52:20.407Z,100673.19
2023-02-15T18:54:47.133Z,100667.19
2023-02-15T18:57:15.666Z,100666.91
2023-02-15T18:59:42.636Z,100684.56
2023-02-15T19:02:17.538Z,100682.78
2023-02-15T19:04:46.389Z,100681.34
2023-02-15T19:07:29.719Z,100680.13
2023-02-15T19:10:00.268Z,100690.84
2023-02-15T19:12:28.383Z,100694.50
2023-02-15T19:14:56.551Z,100698.13
2023-02-15T19:17:23.976Z,100695.53
2023-02-15T19:19:52.008Z,100695.88
2023-02-15T19:22:26.038Z,100689.91
2023-02-15T19:24:54.444Z,100701.28
2023-02-15T19:27:37.022Z,100693.94
2023-02-15T19:30:13.346Z,100683.72
2023-02-15T19:32:39.658Z,100699.38
2023-02-15T19:35:06.375Z,100696.53
2023-02-15T19:37:37.516Z,100699.09
2023-02-15T19:40:04.854Z,100693.78
2023-02-15T19:42:32.431Z,100702.38
2023-02-15T19:44:58.740Z,100691.78
2023-02-15T19:47:27.793Z,100694.94
2023-02-15T19:50:00.151Z,100702.38
2023-02-15T19:52:26.553Z,100697.31
2023-02-15T19:54:54.609Z,100692.47
2023-02-15T19:57:21.180Z,100695.09
2023-02-15T19:59:47.467Z,100692.84
2023-02-15T20:02:15.515Z,100705.19
2023-02-15T20:04:41.911Z,100705.63
2023-02-15T20:07:27.470Z,100702.03
2023-02-15T20:09:53.909Z,100702.03
2023-02-15T20:12:25.442Z,100685.69
2023-02-15T20:14:52.895Z,100691.41
2023-02-15T20:17:19.506Z,100696.66
2023-02-15T20:19:46.049Z,100703.69
2023-02-15T20:22:27.246Z,100707.63
2023-02-15T20:24:56.104Z,100708.84
2023-02-15T20:27:23.149Z,100709.41
2023-02-15T20:29:50.363Z,100700.19
2023-02-15T20:32:16.838Z,100704.25
2023-02-15T20:34:43.265Z,100701.66
2023-02-15T20:37:28.690Z,100706.28
2023-02-15T20:39:55.241Z,100706.66
2023-02-15T20:42:21.608Z,100705.72
2023-02-15T20:44:47.935Z,100705.63
2023-02-15T20:47:14.322Z,100703.63
2023-02-15T20:49:40.664Z,100688.84
2023-02-15T20:52:19.769Z,100703.69
2023-02-15T20:54:46.141Z,100697.06
2023-02-15T20:57:12.841Z,100701.34
2023-02-15T20:59:40.555Z,100714.25
2023-02-15T21:02:23.647Z,100699.34
2023-02-15T21:04:49.991Z,100718.72
2023-02-15T21:07:19.975Z,100711.59
2023-02-15T21:09:46.470Z,100710.00
2023-02-15T21:12:18.380Z,100712.63
2023-02-15T21:14:45.530Z,100717.69
2023-02-15T21:17:13.346Z,100719.22
2023-02-15T21:19:41.202Z,100722.72
2023-02-15T21:22:12.270Z,100729.72
2023-02-15T21:24:38.620Z,100718.34
2023-02-15T21:27:06.779Z,100725.25
2023-02-15T21:29:33.216Z,100726.09
2023-02-15T21:32:00.350Z,100714.16
2023-02-15T21:34:26.818Z,100715.16
2023-02-15T21:36:53.468Z,100720.63
2023-02-15T21:39:23.194Z,100715.81
2023-02-15T21:42:10.137Z,100730.69
2023-02-15T21:44:54.957Z,100722.16
2023-02-15T21:47:44.830Z,100723.41
2023-02-15T21:50:43.599Z,100709.59
2023-02-15T21:53:13.368Z,100705.03
2023-02-15T21:55:39.726Z,100702.50
2023-02-15T21:58:06.182Z,100710.06
2023-02-15T22:00:33.685Z,100699.50
2023-02-15T22:03:01.664Z,100707.22
2023-02-15T22:05:34.304Z,100710.63
2023-02-15T22:08:00.884Z,100706.44
2023-02-15T22:10:30.906Z,100708.16
2023-02-15T22:13:00.109Z,100703.53
2023-02-15T22:15:31.997Z,100708.63
2023-02-15T22:17:58.317Z,100700.19
2023-02-15T22:20:25.168Z,100716.03
2023-02-15T22:22:52.444Z,100696.13
2023-02-15T22:25:22.955Z,100701.91
2023-02-15T22:27:51.171Z,100698.88
2023-02-15T22:30:28.141Z,100702.50
2023-02-15T22:32:56.527Z,100695.50
2023-02-15T22:35:32.162Z,100696.97
2023-02-15T22:37:59.171Z,100699.88
2023-02-15T22:40:33.651Z,100699.06
2023-02-15T22:43:02.464Z,100707.31
2023-02-15T22:45:28.910Z,100699.13
2023-02-15T22:47:57.657Z,100700.09
2023-02-15T22:50:30.237Z,100699.84
2023-02-15T22:52:56.882Z,100707.84
2023-02-15T22:55:24.966Z,100708.88
2023-02-15T22:57:54.340Z,100710.34
2023-02-15T23:00:24.227Z,100706.66
2023-02-15T23:02:50.670Z,100702.84
2023-02-15T23:05:18.645Z,100710.25
2023-02-15T23:07:45.855Z,100694.09
2023-02-15T23:10:21.021Z,100705.22
2023-02-15T23:13:08.146Z,100694.97
2023-02-15T23:15:35.761Z,100700.31
2023-02-15T23:18:52.044Z,100692.84
2023-02-15T23:21:32.863Z,100689.69
2023-02-15T23:24:15.360Z,100691.91
2023-02-15T23:26:41.656Z,100688.69
2023-02-15T23:29:13.946Z,100686.47
2023-02-15T23:31:43.488Z,100674.63
2023-02-15T23:34:29.444Z,100674.38
2023-02-15T23:36:56.636Z,100672.41
2023-02-15T23:39:46.416Z,100674.56
2023-02-15T23:42:28.023Z,100671.06
2023-02-15T23:44:54.368Z,100678.28
2023-02-15T23:47:44.083Z,100676.91
2023-02-15T23:50:28.380Z,100670.94
2023-02-15T23:52:55.992Z,100675.41
2023-02-15T23:55:24.908Z,100677.56
2023-02-15T23:57:51.230Z,100678.47
